createdAt,value
2018-11-06T00:01:29.943Z,80.10
2018-11-06T00:04:04.165Z,80.10
2018-11-06T00:06:32.286Z,80.20
2018-11-06T00:09:00.384Z,80.10
2018-11-06T00:11:28.494Z,80.00
2018-11-06T00:13:56.567Z,80.00
2018-11-06T00:16:24.638Z,80.00
2018-11-06T00:18:52.711Z,80.00
2018-11-06T00:21:20.766Z,79.80
2018-11-06T00:23:48.847Z,79.90
2018-11-06T00:26:16.906Z,80.00
2018-11-06T00:28:44.990Z,80.00
2018-11-06T00:31:13.062Z,80.00
2018-11-06T00:33:41.154Z,79.90
2018-11-06T00:36:09.206Z,80.10
2018-11-06T00:38:37.267Z,80.30
2018-11-06T00:41:05.358Z,80.60
2018-11-06T00:43:33.434Z,82.00
2018-11-06T00:46:01.502Z,83.20
2018-11-06T00:48:29.578Z,82.70
2018-11-06T00:50:57.650Z,83.40
2018-11-06T00:53:25.718Z,84.20
2018-11-06T00:55:53.783Z,84.80
2018-11-06T00:58:21.838Z,84.90
2018-11-06T01:00:49.924Z,85.50
2018-11-06T01:03:17.982Z,85.30
2018-11-06T01:05:46.050Z,85.10
2018-11-06T01:08:14.120Z,84.80
2018-11-06T01:10:42.178Z,84.00
2018-11-06T01:13:10.250Z,84.10
2018-11-06T01:15:38.319Z,83.70
2018-11-06T01:18:06.414Z,83.30
2018-11-06T01:20:34.490Z,83.20
2018-11-06T01:23:02.559Z,82.90
2018-11-06T01:25:30.662Z,82.90
2018-11-06T01:27:58.769Z,82.70
2018-11-06T01:30:26.939Z,82.40
2018-11-06T01:32:55.099Z,82.20
2018-11-06T01:35:23.167Z,82.10
2018-11-06T01:37:51.243Z,82.10
2018-11-06T01:40:19.352Z,82.10
2018-11-06T01:42:48.226Z,81.80
2018-11-06T01:45:16.935Z,81.80
2018-11-06T01:47:45.019Z,82.00
2018-11-06T01:50:14.414Z,82.00
2018-11-06T01:52:43.598Z,81.90
2018-11-06T01:55:12.272Z,82.00
2018-11-06T01:57:40.476Z,82.10
2018-11-06T02:00:16.941Z,82.30
2018-11-06T02:02:44.987Z,82.50
2018-11-06T02:05:14.214Z,82.50
2018-11-06T02:07:43.414Z,83.40
2018-11-06T02:10:12.675Z,84.00
2018-11-06T02:12:41.408Z,85.00
2018-11-06T02:15:09.867Z,85.00
2018-11-06T02:17:38.654Z,85.50
2018-11-06T02:20:06.890Z,86.10
2018-11-06T02:22:34.946Z,86.40
2018-11-06T02:25:03.268Z,86.70
2018-11-06T02:27:31.329Z,86.90
2018-11-06T02:29:59.370Z,86.70
2018-11-06T02:32:27.533Z,86.60
2018-11-06T02:34:55.505Z,86.30
2018-11-06T02:37:23.838Z,87.00
2018-11-06T02:39:51.918Z,85.20
2018-11-06T02:42:19.988Z,85.10
2018-11-06T02:44:48.063Z,85.10
2018-11-06T02:47:16.131Z,85.10
2018-11-06T02:49:44.229Z,85.90
2018-11-06T02:52:12.307Z,86.40
2018-11-06T02:54:40.382Z,86.40
2018-11-06T02:57:08.491Z,86.80
2018-11-06T02:59:36.601Z,86.70
2018-11-06T03:02:04.872Z,85.90
2018-11-06T03:04:32.954Z,85.80
2018-11-06T03:07:01.031Z,85.70
2018-11-06T03:09:29.074Z,85.00
2018-11-06T03:11:57.147Z,85.00
2018-11-06T03:14:25.522Z,84.60
2018-11-06T03:16:53.667Z,84.90
2018-11-06T03:19:21.763Z,85.90
2018-11-06T03:21:49.874Z,86.30
2018-11-06T03:24:17.975Z,86.50
2018-11-06T03:26:46.316Z,87.00
2018-11-06T03:29:14.254Z,86.90
2018-11-06T03:31:42.343Z,86.80
2018-11-06T03:34:10.417Z,86.90
2018-11-06T03:36:38.506Z,87.00
2018-11-06T03:39:08.004Z,87.10
2018-11-06T03:41:36.117Z,87.20
2018-11-06T03:44:04.389Z,87.10
2018-11-06T03:46:32.458Z,86.80
2018-11-06T03:49:00.823Z,86.40
2018-11-06T03:51:29.187Z,86.40
2018-11-06T03:53:57.291Z,86.70
2018-11-06T03:56:25.360Z,87.80
2018-11-06T03:58:53.430Z,87.20
2018-11-06T04:01:21.508Z,87.30
2018-11-06T04:03:49.613Z,87.30
2018-11-06T04:06:17.678Z,87.40
2018-11-06T04:08:45.747Z,87.40
2018-11-06T04:11:13.823Z,87.80
2018-11-06T04:13:41.918Z,87.70
2018-11-06T04:16:10.008Z,87.80
2018-11-06T04:18:38.094Z,87.80
2018-11-06T04:21:06.165Z,87.60
2018-11-06T04:23:34.242Z,88.20
2018-11-06T04:26:02.314Z,88.30
2018-11-06T04:28:30.413Z,87.70
2018-11-06T04:30:58.463Z,87.80
2018-11-06T04:33:26.526Z,87.80
2018-11-06T04:35:54.610Z,88.00
2018-11-06T04:38:22.686Z,87.70
2018-11-06T04:40:50.766Z,87.60
2018-11-06T04:43:18.874Z,87.70
2018-11-06T04:45:47.036Z,87.60
2018-11-06T04:48:15.114Z,87.40
2018-11-06T04:50:43.182Z,87.20
2018-11-06T04:53:11.274Z,86.90
2018-11-06T04:55:39.346Z,86.70
2018-11-06T04:58:07.418Z,87.00
2018-11-06T05:00:35.488Z,87.10
2018-11-06T05:03:03.580Z,87.30
2018-11-06T05:05:31.662Z,87.50
2018-11-06T05:07:59.722Z,87.40
2018-11-06T05:10:27.794Z,87.80
2018-11-06T05:12:55.851Z,87.70
2018-11-06T05:15:23.948Z,87.90
2018-11-06T05:17:52.027Z,87.90
2018-11-06T05:20:20.111Z,88.50
2018-11-06T05:22:48.172Z,88.30
2018-11-06T05:25:16.445Z,88.30
2018-11-06T05:27:44.486Z,88.50
2018-11-06T05:30:12.918Z,89.10
2018-11-06T05:32:42.496Z,89.20
2018-11-06T05:35:11.163Z,88.70
2018-11-06T05:37:39.442Z,88.50
2018-11-06T05:40:19.150Z,88.60
2018-11-06T05:42:47.216Z,88.70
2018-11-06T05:45:15.436Z,88.30
2018-11-06T05:47:43.501Z,88.00
2018-11-06T05:50:11.571Z,87.80
2018-11-06T05:52:39.646Z,87.50
2018-11-06T05:55:07.715Z,87.60
2018-11-06T05:57:35.887Z,87.60
2018-11-06T06:00:04.058Z,87.60
2018-11-06T06:02:32.310Z,87.40
2018-11-06T06:05:00.379Z,87.10
2018-11-06T06:07:28.453Z,87.60
2018-11-06T06:09:56.650Z,86.70
2018-11-06T06:12:24.727Z,86.50
2018-11-06T06:14:52.798Z,86.40
2018-11-06T06:17:20.929Z,86.30
2018-11-06T06:19:48.962Z,86.40
2018-11-06T06:22:17.073Z,86.10
2018-11-06T06:24:45.104Z,85.90
2018-11-06T06:27:13.183Z,86.00
2018-11-06T06:29:41.255Z,86.30
2018-11-06T06:32:09.626Z,85.90
2018-11-06T06:34:38.078Z,85.80
2018-11-06T06:37:06.558Z,85.60
2018-11-06T06:39:34.678Z,85.70
2018-11-06T06:42:02.762Z,86.40
2018-11-06T06:44:30.840Z,86.80
2018-11-06T06:46:59.252Z,87.60
2018-11-06T06:49:27.347Z,88.20
2018-11-06T06:51:55.580Z,88.40
2018-11-06T06:54:23.845Z,88.80
2018-11-06T06:56:51.818Z,88.80
2018-11-06T06:59:19.891Z,88.60
2018-11-06T07:01:48.241Z,88.60
2018-11-06T07:04:17.914Z,88.60
2018-11-06T07:06:46.158Z,88.90
2018-11-06T07:09:14.233Z,88.90
2018-11-06T07:11:42.479Z,88.70
2018-11-06T07:14:10.669Z,89.00
2018-11-06T07:16:38.739Z,88.70
2018-11-06T07:19:06.803Z,88.70
2018-11-06T07:21:34.916Z,88.90
2018-11-06T07:24:03.302Z,89.10
2018-11-06T07:26:31.792Z,89.10
2018-11-06T07:28:59.979Z,89.10
2018-11-06T07:31:27.943Z,88.90
2018-11-06T07:33:56.031Z,89.20
2018-11-06T07:36:24.134Z,89.20
2018-11-06T07:38:52.231Z,89.30
2018-11-06T07:41:20.326Z,89.40
2018-11-06T07:43:48.447Z,89.60
2018-11-06T07:46:16.513Z,90.20
2018-11-06T07:48:44.710Z,90.00
2018-11-06T07:51:12.781Z,90.10
2018-11-06T07:53:40.869Z,90.10
2018-11-06T07:56:09.070Z,90.20
2018-11-06T07:58:37.099Z,90.20
2018-11-06T08:01:05.659Z,90.20
2018-11-06T08:03:33.859Z,90.30
2018-11-06T08:06:01.907Z,90.30
2018-11-06T08:08:29.989Z,90.30
2018-11-06T08:10:58.054Z,90.40
2018-11-06T08:13:26.248Z,90.40
2018-11-06T08:15:54.295Z,90.30
2018-11-06T08:18:22.366Z,90.20
2018-11-06T08:20:50.430Z,90.20
2018-11-06T08:23:18.510Z,90.20
2018-11-06T08:25:46.582Z,90.10
2018-11-06T08:28:14.670Z,90.10
2018-11-06T08:30:42.859Z,90.10
2018-11-06T08:33:10.894Z,90.00
2018-11-06T08:35:38.939Z,90.00
2018-11-06T08:38:07.011Z,90.10
2018-11-06T08:40:35.194Z,90.00
2018-11-06T08:43:03.279Z,89.90
2018-11-06T08:45:31.425Z,89.70
2018-11-06T08:47:59.526Z,89.90
2018-11-06T08:51:57.107Z,89.70
2018-11-06T08:54:25.220Z,89.60
2018-11-06T08:56:53.338Z,89.80
2018-11-06T08:59:21.454Z,89.80
2018-11-06T09:01:49.595Z,90.00
2018-11-06T09:04:17.675Z,89.80
2018-11-06T09:06:45.904Z,90.00
2018-11-06T09:09:14.011Z,89.40
2018-11-06T09:11:42.080Z,89.40
2018-11-06T09:14:10.154Z,89.20
2018-11-06T09:16:38.544Z,89.40
2018-11-06T09:19:06.614Z,89.30
2018-11-06T09:21:34.695Z,90.00
2018-11-06T09:24:02.898Z,89.10
2018-11-06T09:26:31.053Z,88.90
2018-11-06T09:28:59.118Z,89.00
2018-11-06T09:31:28.403Z,89.00
2018-11-06T09:33:56.734Z,88.80
2018-11-06T09:36:25.004Z,88.50
2018-11-06T09:38:53.087Z,89.30
2018-11-06T09:41:21.192Z,88.50
2018-11-06T09:43:49.240Z,88.60
2018-11-06T09:46:17.327Z,88.20
2018-11-06T09:48:45.396Z,87.90
2018-11-06T09:51:13.559Z,86.90
2018-11-06T09:53:41.991Z,87.00
2018-11-06T09:56:10.103Z,86.60
2018-11-06T09:58:38.203Z,85.30
2018-11-06T10:01:06.292Z,85.80
2018-11-06T10:03:34.363Z,85.30
2018-11-06T10:06:02.781Z,84.90
2018-11-06T10:08:30.815Z,83.80
2018-11-06T10:10:58.929Z,83.70
2018-11-06T10:13:27.052Z,83.30
2018-11-06T10:15:55.137Z,83.20
2018-11-06T10:18:23.556Z,83.10
2018-11-06T10:20:51.627Z,83.00
2018-11-06T10:23:19.699Z,82.60
2018-11-06T10:25:47.830Z,82.00
2018-11-06T10:28:15.962Z,81.60
2018-11-06T10:30:44.065Z,81.00
2018-11-06T10:33:12.099Z,81.40
2018-11-06T10:35:40.170Z,81.20
2018-11-06T10:38:08.304Z,80.70
2018-11-06T10:40:36.354Z,80.60
2018-11-06T10:43:04.558Z,80.60
2018-11-06T10:45:32.721Z,78.90
2018-11-06T10:48:00.798Z,78.90
2018-11-06T10:50:28.867Z,79.20
2018-11-06T10:52:56.918Z,79.10
2018-11-06T10:55:24.994Z,77.50
2018-11-06T10:57:53.064Z,77.40
2018-11-06T11:00:26.526Z,76.80
2018-11-06T11:02:59.906Z,76.90
2018-11-06T11:05:29.049Z,76.50
2018-11-06T11:07:57.102Z,75.20
2018-11-06T11:10:25.175Z,75.40
2018-11-06T11:12:53.260Z,75.20
2018-11-06T11:15:21.339Z,72.90
2018-11-06T11:17:49.675Z,73.20
2018-11-06T11:20:17.816Z,72.40
2018-11-06T11:22:45.841Z,72.30
2018-11-06T11:25:15.220Z,71.40
2018-11-06T11:27:43.999Z,70.50
2018-11-06T11:30:13.479Z,70.50
2018-11-06T11:32:43.008Z,70.80
2018-11-06T11:35:11.388Z,71.30
2018-11-06T11:37:39.676Z,71.90
2018-11-06T11:40:08.858Z,72.60
2018-11-06T11:42:37.232Z,72.70
2018-11-06T11:45:06.488Z,71.60
2018-11-06T11:47:34.595Z,71.10
2018-11-06T11:50:02.679Z,70.80
2018-11-06T11:52:30.769Z,70.60
2018-11-06T11:54:59.160Z,70.00
2018-11-06T11:57:27.159Z,70.10
2018-11-06T11:59:55.406Z,68.30
2018-11-06T12:02:23.469Z,68.30
2018-11-06T12:04:51.485Z,69.20
2018-11-06T12:07:19.564Z,68.70
2018-11-06T12:09:47.626Z,68.00
2018-11-06T12:12:15.777Z,68.10
2018-11-06T12:14:43.832Z,68.40
2018-11-06T12:17:11.962Z,69.10
2018-11-06T12:19:39.995Z,68.60
2018-11-06T12:22:08.222Z,68.80
2018-11-06T12:24:36.390Z,68.60
2018-11-06T12:27:04.619Z,68.50
2018-11-06T12:29:32.694Z,68.80
2018-11-06T12:32:01.111Z,67.80
2018-11-06T12:34:29.211Z,67.50
2018-11-06T12:36:57.532Z,67.50
2018-11-06T12:39:25.544Z,67.20
2018-11-06T12:41:53.615Z,67.70
2018-11-06T12:44:21.704Z,67.50
2018-11-06T12:46:49.759Z,67.80
2018-11-06T12:49:17.822Z,67.20
2018-11-06T12:51:45.870Z,67.50
2018-11-06T12:54:13.984Z,67.70
2018-11-06T12:56:42.346Z,67.90
2018-11-06T12:59:10.415Z,67.90
2018-11-06T13:01:38.477Z,67.00
2018-11-06T13:04:06.548Z,66.60
2018-11-06T13:06:34.619Z,65.70
2018-11-06T13:09:02.703Z,65.70
2018-11-06T13:11:30.771Z,66.10
2018-11-06T13:13:58.835Z,65.90
2018-11-06T13:16:26.907Z,66.10
2018-11-06T13:18:55.001Z,65.10
2018-11-06T13:21:23.047Z,65.20
2018-11-06T13:23:51.131Z,65.20
2018-11-06T13:26:19.362Z,64.60
2018-11-06T13:28:47.349Z,64.60
2018-11-06T13:31:15.421Z,64.40
2018-11-06T13:33:43.549Z,64.60
2018-11-06T13:36:11.670Z,64.50
2018-11-06T13:38:39.710Z,64.70
2018-11-06T13:41:07.950Z,64.80
2018-11-06T13:43:36.149Z,64.80
2018-11-06T13:46:04.494Z,64.50
2018-11-06T13:48:32.605Z,64.40
2018-11-06T13:51:00.666Z,64.30
2018-11-06T13:53:28.720Z,64.40
2018-11-06T13:55:56.808Z,62.40
2018-11-06T13:58:25.262Z,63.50
2018-11-06T14:00:53.352Z,63.50
2018-11-06T14:03:21.427Z,63.40
2018-11-06T14:05:49.487Z,63.40
2018-11-06T14:08:17.559Z,63.10
2018-11-06T14:10:45.628Z,63.00
2018-11-06T14:13:13.693Z,62.90
2018-11-06T14:15:41.892Z,62.80
2018-11-06T14:18:09.971Z,62.60
2018-11-06T14:20:38.042Z,62.70
2018-11-06T14:23:06.147Z,62.80
2018-11-06T14:25:34.215Z,62.50
2018-11-06T14:28:02.287Z,62.70
2018-11-06T14:30:30.376Z,62.70
2018-11-06T14:32:58.443Z,62.80
2018-11-06T14:35:26.850Z,62.80
2018-11-06T14:37:54.911Z,62.80
2018-11-06T14:40:23.291Z,62.80
2018-11-06T14:42:51.417Z,63.10
2018-11-06T14:45:19.684Z,63.30
2018-11-06T14:47:48.143Z,64.10
2018-11-06T14:50:16.203Z,63.50
2018-11-06T14:52:44.287Z,63.60
2018-11-06T14:55:13.699Z,63.40
2018-11-06T14:57:41.805Z,63.40
2018-11-06T15:00:14.257Z,63.60
2018-11-06T15:02:43.232Z,63.20
2018-11-06T15:05:11.291Z,62.80
2018-11-06T15:07:39.354Z,62.50
2018-11-06T15:10:08.068Z,62.20
2018-11-06T15:12:36.473Z,62.50
2018-11-06T15:15:05.601Z,62.60
2018-11-06T15:17:33.674Z,62.20
2018-11-06T15:20:01.824Z,62.00
2018-11-06T15:22:29.899Z,61.90
2018-11-06T15:24:58.319Z,62.00
2018-11-06T15:27:26.411Z,62.20
2018-11-06T15:29:54.467Z,63.00
2018-11-06T15:32:22.623Z,62.00
2018-11-06T15:34:50.603Z,62.10
2018-11-06T15:37:18.939Z,61.90
2018-11-06T15:39:47.049Z,61.90
2018-11-06T15:42:15.084Z,62.00
2018-11-06T15:44:43.159Z,62.20
2018-11-06T15:47:11.225Z,61.90
2018-11-06T15:49:39.643Z,62.60
2018-11-06T15:52:07.746Z,62.80
2018-11-06T15:54:36.028Z,62.70
2018-11-06T15:57:04.235Z,62.80
2018-11-06T15:59:32.320Z,62.90
2018-11-06T16:02:00.645Z,63.00
2018-11-06T16:04:28.793Z,63.60
2018-11-06T16:06:56.918Z,63.10
2018-11-06T16:09:24.955Z,63.10
2018-11-06T16:11:53.003Z,63.10
2018-11-06T16:14:21.338Z,63.30
2018-11-06T16:16:49.422Z,63.10
2018-11-06T16:19:17.862Z,63.40
2018-11-06T16:21:45.940Z,63.40
2018-11-06T16:24:14.070Z,63.00
2018-11-06T16:26:42.458Z,63.20
2018-11-06T16:29:10.532Z,63.30
2018-11-06T16:31:38.622Z,63.20
2018-11-06T16:34:06.697Z,63.20
2018-11-06T16:36:34.777Z,63.40
2018-11-06T16:39:02.923Z,63.40
2018-11-06T16:41:31.054Z,63.30
2018-11-06T16:43:59.059Z,63.50
2018-11-06T16:46:27.119Z,63.80
2018-11-06T16:48:55.243Z,63.50
2018-11-06T16:51:23.690Z,63.70
2018-11-06T16:53:51.756Z,63.90
2018-11-06T16:56:19.846Z,64.00
2018-11-06T16:58:48.787Z,64.10
2018-11-06T17:01:17.043Z,64.20
2018-11-06T17:03:45.301Z,64.40
2018-11-06T17:07:17.499Z,64.30
2018-11-06T17:09:45.959Z,64.20
2018-11-06T17:12:14.035Z,64.60
2018-11-06T17:14:42.087Z,64.60
2018-11-06T17:17:10.210Z,64.70
2018-11-06T17:19:38.230Z,64.90
2018-11-06T17:22:06.311Z,64.90
2018-11-06T17:24:34.374Z,65.00
2018-11-06T17:27:02.543Z,65.10
2018-11-06T17:29:30.609Z,65.30
2018-11-06T17:31:58.702Z,65.40
2018-11-06T17:34:26.790Z,65.40
2018-11-06T17:36:54.869Z,65.60
2018-11-06T17:39:23.000Z,66.40
2018-11-06T17:41:51.089Z,65.80
2018-11-06T17:44:19.126Z,65.90
2018-11-06T17:46:47.471Z,66.20
2018-11-06T17:49:15.562Z,66.50
2018-11-06T17:51:43.677Z,66.40
2018-11-06T17:54:11.753Z,66.50
2018-11-06T17:56:40.171Z,66.60
2018-11-06T17:59:08.239Z,66.70
2018-11-06T18:01:36.308Z,66.70
2018-11-06T18:04:04.474Z,66.80
2018-11-06T18:06:32.466Z,66.90
2018-11-06T18:09:00.539Z,67.00
2018-11-06T18:11:28.623Z,67.00
2018-11-06T18:13:56.719Z,67.00
2018-11-06T18:16:24.798Z,67.10
2018-11-06T18:18:52.883Z,67.20
2018-11-06T18:21:21.053Z,67.10
2018-11-06T18:23:49.196Z,67.20
2018-11-06T18:26:17.296Z,67.30
2018-11-06T18:28:45.371Z,67.30
2018-11-06T18:31:13.447Z,67.50
2018-11-06T18:33:41.513Z,67.50
2018-11-06T18:36:09.923Z,67.60
2018-11-06T18:38:38.004Z,67.80
2018-11-06T18:41:06.067Z,67.90
2018-11-06T18:43:34.179Z,68.00
2018-11-06T18:46:02.251Z,68.20
2018-11-06T18:48:30.359Z,68.20
2018-11-06T18:50:58.419Z,68.20
2018-11-06T18:53:26.549Z,68.90
2018-11-06T18:55:54.587Z,69.00
2018-11-06T18:58:22.745Z,69.00
2018-11-06T19:00:51.057Z,68.80
2018-11-06T19:03:19.131Z,68.60
2018-11-06T19:05:47.230Z,68.50
2018-11-06T19:08:15.323Z,68.50
2018-11-06T19:10:43.480Z,69.20
2018-11-06T19:13:11.488Z,68.50
2018-11-06T19:15:39.595Z,68.60
2018-11-06T19:18:07.680Z,68.90
2018-11-06T19:20:35.775Z,68.90
2018-11-06T19:23:03.839Z,68.90
2018-11-06T19:25:32.096Z,68.80
2018-11-06T19:28:00.167Z,69.50
2018-11-06T19:30:28.313Z,69.00
2018-11-06T19:32:56.327Z,69.30
2018-11-06T19:35:24.382Z,69.40
2018-11-06T19:37:52.718Z,69.50
2018-11-06T19:40:20.808Z,69.50
2018-11-06T19:42:49.383Z,69.60
2018-11-06T19:45:17.476Z,69.70
2018-11-06T19:47:45.531Z,69.90
2018-11-06T19:50:15.446Z,70.20
2018-11-06T19:52:43.411Z,70.80
2018-11-06T19:55:12.716Z,70.80
2018-11-06T19:57:40.995Z,70.90
2018-11-06T20:00:20.041Z,70.80
2018-11-06T20:02:49.195Z,70.70
2018-11-06T20:05:17.300Z,70.50
2018-11-06T20:07:45.979Z,70.80
2018-11-06T20:10:15.382Z,70.70
2018-11-06T20:12:44.586Z,70.70
2018-11-06T20:15:14.078Z,70.90
2018-11-06T20:17:42.782Z,70.70
2018-11-06T20:20:15.769Z,70.90
2018-11-06T20:22:44.320Z,71.60
2018-11-06T20:25:12.827Z,71.60
2018-11-06T20:27:40.962Z,72.60
2018-11-06T20:30:11.222Z,72.60
2018-11-06T20:32:39.305Z,72.50
2018-11-06T20:35:08.491Z,72.30
2018-11-06T20:37:36.717Z,72.20
2018-11-06T20:40:06.726Z,72.10
2018-11-06T20:42:34.867Z,72.20
2018-11-06T20:45:02.902Z,72.30
2018-11-06T20:47:30.958Z,72.20
2018-11-06T20:49:59.044Z,72.20
2018-11-06T20:52:27.154Z,73.20
2018-11-06T20:54:55.223Z,73.00
2018-11-06T20:57:23.373Z,73.10
2018-11-06T20:59:51.438Z,73.40
2018-11-06T21:02:19.510Z,73.60
2018-11-06T21:04:47.587Z,73.80
2018-11-06T21:07:15.659Z,73.80
2018-11-06T21:09:43.731Z,73.90
2018-11-06T21:12:11.799Z,73.80
2018-11-06T21:14:39.931Z,74.00
2018-11-06T21:17:07.993Z,73.90
2018-11-06T21:19:36.074Z,74.10
2018-11-06T21:22:04.769Z,74.50
2018-11-06T21:24:32.884Z,74.20
2018-11-06T21:27:02.095Z,74.20
2018-11-06T21:29:30.035Z,74.10
2018-11-06T21:31:58.095Z,74.20
2018-11-06T21:34:26.163Z,74.30
2018-11-06T21:36:54.306Z,74.30
2018-11-06T21:39:22.379Z,74.30
2018-11-06T21:41:50.455Z,74.30
2018-11-06T21:44:18.526Z,74.90
2018-11-06T21:46:46.600Z,74.50
2018-11-06T21:49:14.667Z,74.40
2018-11-06T21:51:42.750Z,74.30
2018-11-06T21:54:10.899Z,74.20
2018-11-06T21:56:39.026Z,74.30
2018-11-06T21:59:07.106Z,74.40
2018-11-06T22:01:35.276Z,74.40
2018-11-06T22:04:03.375Z,74.50
2018-11-06T22:06:31.443Z,74.20
2018-11-06T22:08:59.515Z,74.50
2018-11-06T22:11:27.645Z,74.60
2018-11-06T22:13:55.733Z,74.50
2018-11-06T22:16:23.807Z,74.60
2018-11-06T22:18:51.889Z,74.40
2018-11-06T22:21:20.053Z,74.50
2018-11-06T22:23:48.122Z,74.60
2018-11-06T22:26:16.179Z,74.60
2018-11-06T22:28:44.259Z,74.70
2018-11-06T22:31:12.400Z,74.70
2018-11-06T22:33:40.423Z,74.80
2018-11-06T22:36:08.510Z,74.80
2018-11-06T22:38:36.582Z,74.80
2018-11-06T22:41:04.744Z,75.00
2018-11-06T22:43:32.815Z,75.20
2018-11-06T22:46:00.875Z,75.20
2018-11-06T22:48:29.007Z,75.20
2018-11-06T22:50:57.090Z,75.20
2018-11-06T22:53:25.243Z,75.30
2018-11-06T22:55:53.242Z,75.40
2018-11-06T22:58:21.335Z,75.40
2018-11-06T23:00:54.887Z,75.40
2018-11-06T23:03:22.979Z,75.40
2018-11-06T23:05:51.174Z,76.50
2018-11-06T23:08:24.765Z,76.50
2018-11-06T23:10:52.983Z,76.30
2018-11-06T23:13:21.054Z,76.10
2018-11-06T23:15:49.490Z,75.90
2018-11-06T23:18:17.646Z,75.70
2018-11-06T23:20:45.731Z,75.60
2018-11-06T23:23:13.807Z,75.50
2018-11-06T23:25:42.036Z,75.50
2018-11-06T23:28:10.119Z,75.50
2018-11-06T23:30:38.224Z,75.40
2018-11-06T23:33:06.337Z,75.30
2018-11-06T23:35:34.438Z,75.30
2018-11-06T23:38:02.502Z,75.40
2018-11-06T23:40:30.610Z,75.40
2018-11-06T23:42:58.702Z,75.30
2018-11-06T23:45:26.787Z,75.20
2018-11-06T23:47:54.879Z,75.30
2018-11-06T23:50:22.967Z,75.20
2018-11-06T23:52:51.306Z,75.20
2018-11-06T23:55:19.415Z,75.20
2018-11-06T23:57:47.476Z,75.20
